PWSweather.com
Personal Weather Stations
Station Observations
KPASPRIN10
East Vincent, East Vincent, PA 19475

East VincentEast Vincent, PA 19475

Lat: 40.170948, Lon: -75.629681

Elevation: 404

Station Type: Davis VP2

http://www.evweather.com

Latest ConditionsUpdated 8:30:02 PM EDT Monday, Oct 15, 2018
Currently Today's Max Today's Min Today's Average
Temperature 67.1°F19.5°C 67.1°F19.5°C 50.6°F10.3°C 58.5°F14.7°C
Dew Point 64.1°F17.8°C 64.1°F17.8°C 49.4°F9.7°C 57.2°F14.0°C
Winds 10.4 mph SW16.7 kmh SW 10.4 mph -16.7 kmh - - 2.1 mph 3.4 kmh
Wind Gusts 15.0 mph24.1 kmh 18.4 mph29.6 kmh - -
Humidity 90% 98% 90% 95%
Pressure 29.89 in1012.2 mb 30.19 in1022.4 mb 29.87 in1011.5 mb -
Precipitation - 0.13 in3.3 mm - -
Hour Temp Dew Point Humidity Winds Wind Gusts Pressure Precip Precip Rate Daily Precip Total
08:30 PM 67.1°F19.5°C 64.1°F17.8°C 90% 10.4 mph SW16.7 kmh SW 15.0 mph24.1 kmh 29.89 in1012.2 mb - 0.00 in0.0 mm 0.13 in3.3 mm
08:20 PM 66.9°F19.4°C 63.9°F17.7°C 90% 10.4 mph SW16.7 kmh SW 17.3 mph27.8 kmh 29.89 in1012.2 mb - 0.00 in0.0 mm 0.13 in3.3 mm
08:10 PM 66.6°F19.2°C 63.6°F17.6°C 90% 8.1 mph SW13.0 kmh SW 18.4 mph29.6 kmh 29.89 in1012.2 mb - 0.00 in0.0 mm 0.13 in3.3 mm
08:00 PM 66.5°F19.2°C 63.8°F17.7°C 91% 6.9 mph WSW11.1 kmh WSW 9.2 mph14.8 kmh 29.88 in1011.9 mb - 0.00 in0.0 mm 0.13 in3.3 mm
07:50 PM 66.3°F19.1°C 63.6°F17.6°C 91% 6.9 mph WSW11.1 kmh WSW 10.4 mph16.7 kmh 29.87 in1011.5 mb - 0.00 in0.0 mm 0.13 in3.3 mm
07:40 PM 65.8°F18.8°C 63.4°F17.4°C 92% 5.8 mph SW9.3 kmh SW 9.2 mph14.8 kmh 29.87 in1011.5 mb - 0.00 in0.0 mm 0.13 in3.3 mm
07:30 PM 65.4°F18.6°C 63.1°F17.3°C 92% 6.9 mph SW11.1 kmh SW 11.5 mph18.5 kmh 29.88 in1011.9 mb - 0.00 in0.0 mm 0.13 in3.3 mm
07:20 PM 65.2°F18.4°C 63.1°F17.3°C 93% 5.8 mph SW9.3 kmh SW 10.4 mph16.7 kmh 29.89 in1012.2 mb - 0.00 in0.0 mm 0.13 in3.3 mm
07:10 PM 65.4°F18.6°C 63.3°F17.4°C 93% 2.3 mph SW3.7 kmh SW 8.1 mph13.0 kmh 29.89 in1012.2 mb - 0.00 in0.0 mm 0.13 in3.3 mm
07:00 PM 65.3°F18.5°C 63.2°F17.3°C 93% 4.6 mph SW7.4 kmh SW 6.9 mph11.1 kmh 29.90 in1012.5 mb - 0.00 in0.0 mm 0.13 in3.3 mm
06:50 PM 65.1°F18.4°C 63.3°F17.4°C 94% 8.1 mph SW13.0 kmh SW 11.5 mph18.5 kmh 29.90 in1012.5 mb - 0.00 in0.0 mm 0.13 in3.3 mm
06:40 PM 65.0°F18.3°C 63.2°F17.3°C 94% 4.6 mph SW7.4 kmh SW 11.5 mph18.5 kmh 29.90 in1012.5 mb - 0.00 in0.0 mm 0.13 in3.3 mm
06:30 PM 64.9°F18.3°C 63.1°F17.3°C 94% 6.9 mph SW11.1 kmh SW 10.4 mph16.7 kmh 29.90 in1012.5 mb - 0.00 in0.0 mm 0.13 in3.3 mm
06:20 PM 64.8°F18.2°C 63.3°F17.4°C 95% 4.6 mph SW7.4 kmh SW 5.8 mph9.3 kmh 29.90 in1012.5 mb - 0.00 in0.0 mm 0.13 in3.3 mm
06:10 PM 64.8°F18.2°C 63.0°F17.2°C 94% 1.2 mph SW1.9 kmh SW 4.6 mph7.4 kmh 29.90 in1012.5 mb - 0.00 in0.0 mm 0.13 in3.3 mm
06:00 PM 64.8°F18.2°C 63.0°F17.2°C 94% 1.2 mph SW1.9 kmh SW 1.2 mph1.9 kmh 29.90 in1012.5 mb - 0.00 in0.0 mm 0.13 in3.3 mm
05:50 PM 64.7°F18.2°C 62.9°F17.2°C 94% 1.2 mph SSW1.9 kmh SSW 4.6 mph7.4 kmh 29.89 in1012.2 mb - 0.00 in0.0 mm 0.13 in3.3 mm
05:40 PM 64.7°F18.2°C 62.9°F17.2°C 94% 2.3 mph SW3.7 kmh SW 10.4 mph16.7 kmh 29.90 in1012.5 mb - 0.00 in0.0 mm 0.13 in3.3 mm
05:30 PM 64.7°F18.2°C 62.9°F17.2°C 94% 1.2 mph SSW1.9 kmh SSW 3.5 mph5.6 kmh 29.90 in1012.5 mb - 0.00 in0.0 mm 0.13 in3.3 mm
05:20 PM 64.7°F18.2°C 62.9°F17.2°C 94% 1.2 mph SW1.9 kmh SW 6.9 mph11.1 kmh 29.90 in1012.5 mb - 0.00 in0.0 mm 0.13 in3.3 mm
05:10 PM 64.7°F18.2°C 62.9°F17.2°C 94% 3.5 mph SSW5.6 kmh SSW 6.9 mph11.1 kmh 29.90 in1012.5 mb - 0.00 in0.0 mm 0.13 in3.3 mm
05:00 PM 64.5°F18.1°C 62.8°F17.1°C 94% 1.2 mph SW1.9 kmh SW 11.5 mph18.5 kmh 29.92 in1013.2 mb - 0.00 in0.0 mm 0.13 in3.3 mm
04:50 PM 64.6°F18.1°C 62.8°F17.1°C 94% 2.3 mph WSW3.7 kmh WSW 3.5 mph5.6 kmh 29.92 in1013.2 mb - 0.00 in0.0 mm 0.13 in3.3 mm
04:40 PM 64.3°F17.9°C 62.5°F16.9°C 94% 5.8 mph SW9.3 kmh SW 8.1 mph13.0 kmh 29.92 in1013.2 mb - 0.00 in0.0 mm 0.13 in3.3 mm
04:30 PM 64.0°F17.8°C 62.2°F16.8°C 94% 1.2 mph SW1.9 kmh SW 5.8 mph9.3 kmh 29.91 in1012.9 mb - 0.01 in0.3 mm 0.13 in3.3 mm
04:20 PM 64.0°F17.8°C 62.2°F16.8°C 94% 2.3 mph SW3.7 kmh SW 6.9 mph11.1 kmh 29.92 in1013.2 mb - 0.01 in0.3 mm 0.13 in3.3 mm
04:10 PM 63.9°F17.7°C 62.1°F16.7°C 94% 2.3 mph S3.7 kmh S 4.6 mph7.4 kmh 29.92 in1013.2 mb - 0.01 in0.3 mm 0.13 in3.3 mm
04:00 PM 63.8°F17.7°C 62.0°F16.7°C 94% Calm Calm -- 29.93 in1013.5 mb - 0.01 in0.3 mm 0.13 in3.3 mm
03:50 PM 63.7°F17.6°C 61.9°F16.6°C 94% 1.2 mph SW1.9 kmh SW 3.5 mph5.6 kmh 29.93 in1013.5 mb - 0.01 in0.3 mm 0.13 in3.3 mm
03:40 PM 63.6°F17.6°C 61.5°F16.4°C 93% 1.2 mph SW1.9 kmh SW 1.2 mph1.9 kmh 29.94 in1013.9 mb - 0.01 in0.3 mm 0.13 in3.3 mm
03:30 PM 63.8°F17.7°C 61.7°F16.5°C 93% 3.5 mph SW5.6 kmh SW 5.8 mph9.3 kmh 29.95 in1014.2 mb - 0.00 in0.0 mm 0.12 in3.0 mm
03:20 PM 64.0°F17.8°C 61.9°F16.6°C 93% 4.6 mph SW7.4 kmh SW 5.8 mph9.3 kmh 29.95 in1014.2 mb - 0.00 in0.0 mm 0.12 in3.0 mm
03:10 PM 63.8°F17.7°C 61.7°F16.5°C 93% 6.9 mph SW11.1 kmh SW 10.4 mph16.7 kmh 29.95 in1014.2 mb - 0.00 in0.0 mm 0.12 in3.0 mm
03:00 PM 63.5°F17.5°C 61.4°F16.3°C 93% 1.2 mph SW1.9 kmh SW 3.5 mph5.6 kmh 29.95 in1014.2 mb - 0.00 in0.0 mm 0.12 in3.0 mm
02:50 PM 63.4°F17.4°C 61.3°F16.3°C 93% 6.9 mph SW11.1 kmh SW 9.2 mph14.8 kmh 29.96 in1014.6 mb - 0.00 in0.0 mm 0.12 in3.0 mm
02:40 PM 63.3°F17.4°C 61.2°F16.2°C 93% 5.8 mph SSW9.3 kmh SSW 10.4 mph16.7 kmh 29.96 in1014.6 mb - 0.00 in0.0 mm 0.12 in3.0 mm
02:30 PM 63.4°F17.4°C 61.3°F16.3°C 93% 3.5 mph WSW5.6 kmh WSW 9.2 mph14.8 kmh 29.96 in1014.6 mb - 0.00 in0.0 mm 0.12 in3.0 mm
02:20 PM 63.4°F17.4°C 61.3°F16.3°C 93% 4.6 mph SW7.4 kmh SW 5.8 mph9.3 kmh 29.96 in1014.6 mb - 0.00 in0.0 mm 0.12 in3.0 mm
02:10 PM 63.3°F17.4°C 61.5°F16.4°C 94% 1.2 mph SW1.9 kmh SW 3.5 mph5.6 kmh 29.96 in1014.6 mb - 0.00 in0.0 mm 0.12 in3.0 mm
02:00 PM 63.0°F17.2°C 61.2°F16.2°C 94% 1.2 mph SSW1.9 kmh SSW 4.6 mph7.4 kmh 29.97 in1014.9 mb - 0.00 in0.0 mm 0.12 in3.0 mm
01:50 PM 62.8°F17.1°C 61.0°F16.1°C 94% 1.2 mph SSW1.9 kmh SSW 3.5 mph5.6 kmh 29.96 in1014.6 mb - 0.00 in0.0 mm 0.12 in3.0 mm
01:40 PM 62.8°F17.1°C 61.0°F16.1°C 94% 6.9 mph SW11.1 kmh SW 10.4 mph16.7 kmh 29.97 in1014.9 mb - 0.00 in0.0 mm 0.12 in3.0 mm
01:30 PM 62.9°F17.2°C 61.1°F16.2°C 94% 1.2 mph SSW1.9 kmh SSW 4.6 mph7.4 kmh 29.97 in1014.9 mb - 0.00 in0.0 mm 0.12 in3.0 mm
01:20 PM 63.0°F17.2°C 60.9°F16.1°C 93% 5.8 mph SW9.3 kmh SW 10.4 mph16.7 kmh 29.99 in1015.6 mb - 0.00 in0.0 mm 0.12 in3.0 mm
01:10 PM 63.1°F17.3°C 61.3°F16.3°C 94% 5.8 mph S9.3 kmh S 10.4 mph16.7 kmh 29.98 in1015.2 mb - 0.00 in0.0 mm 0.12 in3.0 mm
01:00 PM 63.0°F17.2°C 61.3°F16.3°C 94% 2.3 mph SSW3.7 kmh SSW 3.5 mph5.6 kmh 29.99 in1015.6 mb - 0.00 in0.0 mm 0.12 in3.0 mm
12:50 PM 62.8°F17.1°C 61.0°F16.1°C 94% 3.5 mph SW5.6 kmh SW 8.1 mph13.0 kmh 29.99 in1015.6 mb - 0.00 in0.0 mm 0.12 in3.0 mm
12:40 PM 62.8°F17.1°C 61.3°F16.3°C 95% 1.2 mph S1.9 kmh S 3.5 mph5.6 kmh 29.99 in1015.6 mb - 0.00 in0.0 mm 0.12 in3.0 mm
12:30 PM 62.8°F17.1°C 61.3°F16.3°C 95% 2.3 mph S3.7 kmh S 5.8 mph9.3 kmh 30.00 in1015.9 mb - 0.00 in0.0 mm 0.12 in3.0 mm
12:20 PM 62.6°F17.0°C 61.1°F16.2°C 95% 4.6 mph S7.4 kmh S 6.9 mph11.1 kmh 30.00 in1015.9 mb - 0.00 in0.0 mm 0.12 in3.0 mm
12:10 PM 62.3°F16.8°C 60.8°F16.0°C 95% 3.5 mph SW5.6 kmh SW 5.8 mph9.3 kmh 30.01 in1016.3 mb - 0.00 in0.0 mm 0.12 in3.0 mm
12:00 PM 62.1°F16.7°C 60.7°F15.9°C 95% 2.3 mph SW3.7 kmh SW 5.8 mph9.3 kmh 30.02 in1016.6 mb - 0.00 in0.0 mm 0.12 in3.0 mm
11:50 AM 61.9°F16.6°C 60.7°F15.9°C 96% 3.5 mph SW5.6 kmh SW 4.6 mph7.4 kmh 30.02 in1016.6 mb - 0.00 in0.0 mm 0.12 in3.0 mm
11:40 AM 61.6°F16.4°C 60.4°F15.8°C 96% 2.3 mph SSW3.7 kmh SSW 9.2 mph14.8 kmh 30.03 in1016.9 mb - 0.00 in0.0 mm 0.12 in3.0 mm
11:30 AM 61.2°F16.2°C 60.0°F15.6°C 96% 1.2 mph SW1.9 kmh SW 3.5 mph5.6 kmh 30.03 in1016.9 mb - 0.00 in0.0 mm 0.12 in3.0 mm
11:20 AM 60.9°F16.1°C 59.8°F15.4°C 96% 1.2 mph S1.9 kmh S 3.5 mph5.6 kmh 30.03 in1016.9 mb - 0.00 in0.0 mm 0.12 in3.0 mm
11:10 AM 60.5°F15.8°C 59.6°F15.3°C 97% 3.5 mph SSW5.6 kmh SSW 5.8 mph9.3 kmh 30.04 in1017.3 mb - 0.01 in0.3 mm 0.12 in3.0 mm
11:00 AM 59.9°F15.5°C 59.0°F15.0°C 97% Calm Calm -- 30.05 in1017.6 mb - 0.01 in0.3 mm 0.12 in3.0 mm
10:50 AM 59.5°F15.3°C 58.6°F14.8°C 97% Calm Calm -- 30.05 in1017.6 mb - 0.01 in0.3 mm 0.12 in3.0 mm
10:40 AM 59.1°F15.1°C 58.2°F14.6°C 97% Calm Calm 1.2 mph1.9 kmh 30.05 in1017.6 mb - 0.01 in0.3 mm 0.12 in3.0 mm
10:30 AM 58.7°F14.8°C 57.9°F14.4°C 97% Calm Calm -- 30.05 in1017.6 mb - 0.02 in0.5 mm 0.12 in3.0 mm
10:20 AM 58.5°F14.7°C 57.6°F14.2°C 97% Calm Calm 3.5 mph5.6 kmh 30.06 in1017.9 mb - 0.03 in0.8 mm 0.12 in3.0 mm
10:10 AM 58.3°F14.6°C 57.4°F14.1°C 97% 2.3 mph SW3.7 kmh SW 3.5 mph5.6 kmh 30.06 in1017.9 mb - 0.03 in0.8 mm 0.11 in2.8 mm
10:00 AM 58.1°F14.5°C 57.3°F14.1°C 97% 3.5 mph SSW5.6 kmh SSW 3.5 mph5.6 kmh 30.06 in1017.9 mb - 0.03 in0.8 mm 0.11 in2.8 mm
09:50 AM 58.0°F14.4°C 57.2°F14.0°C 97% 5.8 mph SW9.3 kmh SW 11.5 mph18.5 kmh 30.06 in1017.9 mb - 0.03 in0.8 mm 0.11 in2.8 mm
09:40 AM 57.7°F14.3°C 56.9°F13.8°C 97% 5.8 mph SSW9.3 kmh SSW 5.8 mph9.3 kmh 30.07 in1018.3 mb - 0.04 in1.0 mm 0.11 in2.8 mm
09:30 AM 57.3°F14.1°C 56.5°F13.6°C 97% 2.3 mph S3.7 kmh S 3.5 mph5.6 kmh 30.07 in1018.3 mb - 0.04 in1.0 mm 0.10 in2.5 mm
09:20 AM 57.1°F13.9°C 56.0°F13.3°C 96% 3.5 mph SSW5.6 kmh SSW 4.6 mph7.4 kmh 30.07 in1018.3 mb - 0.06 in1.5 mm 0.10 in2.5 mm
09:10 AM 57.0°F13.9°C 56.2°F13.4°C 97% 1.2 mph SSW1.9 kmh SSW 3.5 mph5.6 kmh 30.06 in1017.9 mb - 0.04 in1.0 mm 0.08 in2.0 mm
09:00 AM 56.9°F13.8°C 55.8°F13.2°C 96% 3.5 mph S5.6 kmh S 3.5 mph5.6 kmh 30.07 in1018.3 mb - 0.04 in1.0 mm 0.08 in2.0 mm
08:50 AM 56.6°F13.7°C 55.5°F13.1°C 96% 1.2 mph SSW1.9 kmh SSW 5.8 mph9.3 kmh 30.08 in1018.6 mb - 0.04 in1.0 mm 0.08 in2.0 mm
08:40 AM 56.7°F13.7°C 55.6°F13.1°C 96% 1.2 mph S1.9 kmh S 5.8 mph9.3 kmh 30.07 in1018.3 mb - 0.03 in0.8 mm 0.07 in1.8 mm
08:30 AM 56.7°F13.7°C 55.6°F13.1°C 96% 2.3 mph S3.7 kmh S 5.8 mph9.3 kmh 30.08 in1018.6 mb - 0.02 in0.5 mm 0.06 in1.5 mm
08:20 AM 56.8°F13.8°C 55.7°F13.2°C 96% 2.3 mph S3.7 kmh S 5.8 mph9.3 kmh 30.08 in1018.6 mb - 0.00 in0.0 mm 0.04 in1.0 mm
08:10 AM 56.7°F13.7°C 55.6°F13.1°C 96% 2.3 mph S3.7 kmh S 3.5 mph5.6 kmh 30.08 in1018.6 mb - 0.00 in0.0 mm 0.04 in1.0 mm
08:00 AM 56.6°F13.7°C 55.5°F13.1°C 96% 4.6 mph SSW7.4 kmh SSW 4.6 mph7.4 kmh 30.08 in1018.6 mb - 0.00 in0.0 mm 0.04 in1.0 mm
07:50 AM 56.4°F13.6°C 55.6°F13.1°C 97% 2.3 mph S3.7 kmh S 3.5 mph5.6 kmh 30.07 in1018.3 mb - 0.00 in0.0 mm 0.04 in1.0 mm
07:40 AM 56.2°F13.4°C 55.4°F13.0°C 97% Calm Calm -- 30.08 in1018.6 mb - 0.00 in0.0 mm 0.04 in1.0 mm
07:30 AM 55.9°F13.3°C 55.1°F12.8°C 97% 2.3 mph SSW3.7 kmh SSW 3.5 mph5.6 kmh 30.09 in1019.0 mb - 0.00 in0.0 mm 0.04 in1.0 mm
07:20 AM 55.7°F13.2°C 55.1°F12.8°C 98% Calm Calm 1.2 mph1.9 kmh 30.08 in1018.6 mb - 0.00 in0.0 mm 0.04 in1.0 mm
07:10 AM 55.5°F13.1°C 54.9°F12.7°C 98% Calm Calm 1.2 mph1.9 kmh 30.09 in1019.0 mb - 0.01 in0.3 mm 0.04 in1.0 mm
07:00 AM 55.3°F12.9°C 54.7°F12.6°C 98% Calm Calm 2.3 mph3.7 kmh 30.09 in1019.0 mb - 0.01 in0.3 mm 0.04 in1.0 mm
06:50 AM 55.2°F12.9°C 54.6°F12.6°C 98% Calm Calm -- 30.09 in1019.0 mb - 0.01 in0.3 mm 0.04 in1.0 mm
06:40 AM 55.0°F12.8°C 54.5°F12.5°C 98% Calm Calm -- 30.09 in1019.0 mb - 0.01 in0.3 mm 0.04 in1.0 mm
06:30 AM 54.9°F12.7°C 54.3°F12.4°C 98% Calm Calm -- 30.09 in1019.0 mb - 0.01 in0.3 mm 0.04 in1.0 mm
06:20 AM 54.8°F12.7°C 54.2°F12.3°C 98% Calm Calm 3.5 mph5.6 kmh 30.09 in1019.0 mb - 0.01 in0.3 mm 0.04 in1.0 mm
06:10 AM 54.8°F12.7°C 54.2°F12.3°C 98% Calm Calm 2.3 mph3.7 kmh 30.09 in1019.0 mb - 0.00 in0.0 mm 0.03 in0.8 mm
06:00 AM 54.6°F12.6°C 54.0°F12.2°C 98% Calm Calm -- 30.10 in1019.3 mb - 0.00 in0.0 mm 0.03 in0.8 mm
05:50 AM 54.4°F12.4°C 53.8°F12.1°C 98% Calm Calm -- 30.11 in1019.6 mb - 0.00 in0.0 mm 0.03 in0.8 mm
05:40 AM 53.9°F12.2°C 53.4°F11.9°C 98% Calm Calm -- 30.11 in1019.6 mb - 0.00 in0.0 mm 0.03 in0.8 mm
05:30 AM 53.4°F11.9°C 52.8°F11.6°C 98% Calm Calm -- 30.10 in1019.3 mb - 0.00 in0.0 mm 0.03 in0.8 mm
05:20 AM 53.0°F11.7°C 52.5°F11.4°C 98% 1.2 mph SSE1.9 kmh SSE 1.2 mph1.9 kmh 30.11 in1019.6 mb - 0.00 in0.0 mm 0.03 in0.8 mm
05:10 AM 52.7°F11.5°C 52.2°F11.2°C 98% Calm Calm -- 30.11 in1019.6 mb - 0.01 in0.3 mm 0.03 in0.8 mm
05:00 AM 52.5°F11.4°C 51.9°F11.1°C 98% Calm Calm 1.2 mph1.9 kmh 30.12 in1020.0 mb - 0.01 in0.3 mm 0.03 in0.8 mm
04:50 AM 52.2°F11.2°C 51.6°F10.9°C 98% 1.2 mph SE1.9 kmh SE 3.5 mph5.6 kmh 30.12 in1020.0 mb - 0.01 in0.3 mm 0.03 in0.8 mm
04:40 AM 52.0°F11.1°C 51.5°F10.8°C 98% Calm Calm -- 30.12 in1020.0 mb - 0.02 in0.5 mm 0.03 in0.8 mm
04:30 AM 51.8°F11.0°C 51.3°F10.7°C 98% 1.2 mph ESE1.9 kmh ESE 3.5 mph5.6 kmh 30.12 in1020.0 mb - 0.02 in0.5 mm 0.03 in0.8 mm
04:20 AM 51.6°F10.9°C 51.1°F10.6°C 98% Calm Calm -- 30.12 in1020.0 mb - 0.02 in0.5 mm 0.03 in0.8 mm
04:10 AM 51.4°F10.8°C 50.6°F10.3°C 97% 1.2 mph ESE1.9 kmh ESE 2.3 mph3.7 kmh 30.12 in1020.0 mb - 0.02 in0.5 mm 0.02 in0.5 mm
04:00 AM 51.2°F10.7°C 50.4°F10.2°C 97% Calm Calm -- 30.12 in1020.0 mb - 0.02 in0.5 mm 0.02 in0.5 mm
03:50 AM 51.1°F10.6°C 50.3°F10.2°C 97% Calm Calm -- 30.13 in1020.3 mb - 0.02 in0.5 mm 0.02 in0.5 mm
03:40 AM 51.1°F10.6°C 50.3°F10.2°C 97% Calm Calm -- 30.14 in1020.7 mb - 0.01 in0.3 mm 0.01 in0.3 mm
03:30 AM 51.1°F10.6°C 50.0°F10.0°C 96% Calm Calm -- 30.15 in1021.0 mb - 0.01 in0.3 mm 0.01 in0.3 mm
03:20 AM 51.1°F10.6°C 50.0°F10.0°C 96% Calm Calm -- 30.15 in1021.0 mb - 0.01 in0.3 mm 0.01 in0.3 mm
03:10 AM 51.2°F10.7°C 50.1°F10.1°C 96% Calm Calm -- 30.15 in1021.0 mb - 0.00 in0.0 mm 0.00 in0.0 mm
03:00 AM 51.2°F10.7°C 50.1°F10.1°C 96% Calm Calm -- 30.16 in1021.3 mb - 0.00 in0.0 mm 0.00 in0.0 mm
02:50 AM 51.2°F10.7°C 50.1°F10.1°C 96% Calm Calm -- 30.16 in1021.3 mb - 0.00 in0.0 mm 0.00 in0.0 mm
02:40 AM 51.2°F10.7°C 49.8°F9.9°C 95% 1.2 mph SE1.9 kmh SE 3.5 mph5.6 kmh 30.16 in1021.3 mb - 0.00 in0.0 mm 0.00 in0.0 mm
02:30 AM 51.2°F10.7°C 49.8°F9.9°C 95% Calm Calm -- 30.16 in1021.3 mb - 0.00 in0.0 mm 0.00 in0.0 mm
02:20 AM 51.2°F10.7°C 49.8°F9.9°C 95% Calm Calm -- 30.16 in1021.3 mb - 0.00 in0.0 mm 0.00 in0.0 mm
02:10 AM 51.0°F10.6°C 49.6°F9.8°C 95% Calm Calm -- 30.17 in1021.7 mb - 0.00 in0.0 mm 0.00 in0.0 mm
02:00 AM 51.0°F10.6°C 49.6°F9.8°C 95% Calm Calm -- 30.17 in1021.7 mb - 0.00 in0.0 mm 0.00 in0.0 mm
01:50 AM 50.9°F10.5°C 49.5°F9.7°C 95% Calm Calm -- 30.17 in1021.7 mb - 0.00 in0.0 mm 0.00 in0.0 mm
01:40 AM 50.9°F10.5°C 49.8°F9.9°C 96% Calm Calm -- 30.17 in1021.7 mb - 0.00 in0.0 mm 0.00 in0.0 mm
01:30 AM 50.8°F10.4°C 49.7°F9.8°C 96% Calm Calm -- 30.18 in1022.0 mb - 0.00 in0.0 mm 0.00 in0.0 mm
01:20 AM 50.8°F10.4°C 49.4°F9.7°C 95% Calm Calm -- 30.18 in1022.0 mb - 0.00 in0.0 mm 0.00 in0.0 mm
01:10 AM 50.8°F10.4°C 49.4°F9.7°C 95% Calm Calm -- 30.18 in1022.0 mb - 0.00 in0.0 mm 0.00 in0.0 mm
01:00 AM 50.7°F10.4°C 49.6°F9.8°C 96% Calm Calm -- 30.18 in1022.0 mb - 0.00 in0.0 mm 0.00 in0.0 mm
12:50 AM 50.8°F10.4°C 49.7°F9.8°C 96% Calm Calm -- 30.18 in1022.0 mb - 0.00 in0.0 mm 0.00 in0.0 mm
12:40 AM 50.8°F10.4°C 49.7°F9.8°C 96% Calm Calm -- 30.19 in1022.4 mb - 0.00 in0.0 mm 0.00 in0.0 mm
12:30 AM 50.6°F10.3°C 49.5°F9.7°C 96% Calm Calm -- 30.19 in1022.4 mb - 0.00 in0.0 mm 0.00 in0.0 mm
12:20 AM 50.6°F10.3°C 49.5°F9.7°C 96% Calm Calm -- 30.19 in1022.4 mb - 0.00 in0.0 mm 0.00 in0.0 mm
12:10 AM 50.8°F10.4°C 49.7°F9.8°C 96% Calm Calm 1.2 mph1.9 kmh 30.19 in1022.4 mb - 0.00 in0.0 mm 0.00 in0.0 mm
12:00 AM 50.8°F10.4°C 49.7°F9.8°C 96% Calm Calm -- 30.19 in1022.4 mb - 0.00 in0.0 mm 0.00 in0.0 mm